sensor_id;sensor_type;location;lat;lon;timestamp;temperature;humidity
43627;DHT22;29217;52.586;13.442;2023-08-07T00:01:36;14.70;99.90
43627;DHT22;29217;52.586;13.442;2023-08-07T00:04:02;14.60;99.90
43627;DHT22;29217;52.586;13.442;2023-08-07T00:06:28;14.60;99.90
43627;DHT22;29217;52.586;13.442;2023-08-07T00:08:53;14.70;99.90
43627;DHT22;29217;52.586;13.442;2023-08-07T00:11:19;14.70;99.90
43627;DHT22;29217;52.586;13.442;2023-08-07T00:13:44;14.60;99.90
43627;DHT22;29217;52.586;13.442;2023-08-07T00:16:10;14.60;99.90
43627;DHT22;29217;52.586;13.442;2023-08-07T00:18:36;14.70;99.90
43627;DHT22;29217;52.586;13.442;2023-08-07T00:21:01;14.70;99.90
43627;DHT22;29217;52.586;13.442;2023-08-07T00:23:27;14.60;99.90
43627;DHT22;29217;52.586;13.442;2023-08-07T00:25:53;14.70;99.90
43627;DHT22;29217;52.586;13.442;2023-08-07T00:28:18;14.70;99.90
43627;DHT22;29217;52.586;13.442;2023-08-07T00:30:44;14.70;99.90
43627;DHT22;29217;52.586;13.442;2023-08-07T00:33:09;14.70;99.90
43627;DHT22;29217;52.586;13.442;2023-08-07T00:35:35;14.80;99.90
43627;DHT22;29217;52.586;13.442;2023-08-07T00:38:01;14.80;99.90
43627;DHT22;29217;52.586;13.442;2023-08-07T00:40:26;14.80;99.90
43627;DHT22;29217;52.586;13.442;2023-08-07T00:42:52;14.70;99.90
43627;DHT22;29217;52.586;13.442;2023-08-07T00:45:17;14.80;99.90
43627;DHT22;29217;52.586;13.442;2023-08-07T00:47:43;14.70;99.90
43627;DHT22;29217;52.586;13.442;2023-08-07T00:50:10;14.70;99.90
43627;DHT22;29217;52.586;13.442;2023-08-07T00:52:36;14.70;99.90
43627;DHT22;29217;52.586;13.442;2023-08-07T00:55:01;14.70;99.90
43627;DHT22;29217;52.586;13.442;2023-08-07T00:57:29;14.80;99.90
43627;DHT22;29217;52.586;13.442;2023-08-07T00:59:55;14.80;99.90
43627;DHT22;29217;52.586;13.442;2023-08-07T01:02:21;14.70;99.90
43627;DHT22;29217;52.586;13.442;2023-08-07T01:04:47;14.80;99.90
43627;DHT22;29217;52.586;13.442;2023-08-07T01:07:12;14.80;99.90
43627;DHT22;29217;52.586;13.442;2023-08-07T01:09:38;14.70;99.90
43627;DHT22;29217;52.586;13.442;2023-08-07T01:17:16;14.80;99.90
43627;DHT22;29217;52.586;13.442;2023-08-07T01:19:44;14.70;99.90
43627;DHT22;29217;52.586;13.442;2023-08-07T01:22:12;14.80;99.90
43627;DHT22;29217;52.586;13.442;2023-08-07T01:24:39;14.80;99.90
43627;DHT22;29217;52.586;13.442;2023-08-07T01:35:19;14.70;99.90
43627;DHT22;29217;52.586;13.442;2023-08-07T01:37:46;14.70;99.90
43627;DHT22;29217;52.586;13.442;2023-08-07T01:40:13;14.70;99.90
43627;DHT22;29217;52.586;13.442;2023-08-07T01:42:39;14.70;99.90
43627;DHT22;29217;52.586;13.442;2023-08-07T01:45:06;14.70;99.90
43627;DHT22;29217;52.586;13.442;2023-08-07T01:47:31;14.60;99.90
43627;DHT22;29217;52.586;13.442;2023-08-07T01:49:57;14.60;99.90
43627;DHT22;29217;52.586;13.442;2023-08-07T01:52:23;14.60;99.90
43627;DHT22;29217;52.586;13.442;2023-08-07T01:54:48;14.60;99.90
43627;DHT22;29217;52.586;13.442;2023-08-07T01:57:14;14.50;99.90
43627;DHT22;29217;52.586;13.442;2023-08-07T01:59:40;14.50;99.90
43627;DHT22;29217;52.586;13.442;2023-08-07T02:02:05;14.50;99.90
43627;DHT22;29217;52.586;13.442;2023-08-07T02:04:31;14.50;99.90
43627;DHT22;29217;52.586;13.442;2023-08-07T02:06:56;14.50;99.90
43627;DHT22;29217;52.586;13.442;2023-08-07T02:09:22;14.50;99.90
43627;DHT22;29217;52.586;13.442;2023-08-07T02:11:48;14.50;99.90
43627;DHT22;29217;52.586;13.442;2023-08-07T02:14:13;14.50;99.90
43627;DHT22;29217;52.586;13.442;2023-08-07T02:16:39;14.50;99.90
43627;DHT22;29217;52.586;13.442;2023-08-07T02:19:04;14.50;99.90
43627;DHT22;29217;52.586;13.442;2023-08-07T02:21:31;14.50;99.90
43627;DHT22;29217;52.586;13.442;2023-08-07T02:23:56;14.50;99.90
43627;DHT22;29217;52.586;13.442;2023-08-07T02:26:22;14.60;99.90
43627;DHT22;29217;52.586;13.442;2023-08-07T02:28:47;14.60;99.90
43627;DHT22;29217;52.586;13.442;2023-08-07T02:31:13;14.60;99.90
43627;DHT22;29217;52.586;13.442;2023-08-07T02:33:39;14.60;99.90
43627;DHT22;29217;52.586;13.442;2023-08-07T02:36:04;14.60;99.90
43627;DHT22;29217;52.586;13.442;2023-08-07T02:38:30;14.60;99.90
43627;DHT22;29217;52.586;13.442;2023-08-07T02:40:55;14.60;99.90
43627;DHT22;29217;52.586;13.442;2023-08-07T02:43:21;14.60;99.90
43627;DHT22;29217;52.586;13.442;2023-08-07T02:45:46;14.60;99.90
43627;DHT22;29217;52.586;13.442;2023-08-07T02:48:12;14.60;99.90
43627;DHT22;29217;52.586;13.442;2023-08-07T02:50:38;14.70;99.90
43627;DHT22;29217;52.586;13.442;2023-08-07T02:53:03;14.70;99.90
43627;DHT22;29217;52.586;13.442;2023-08-07T02:55:29;14.70;99.90
43627;DHT22;29217;52.586;13.442;2023-08-07T02:57:54;14.70;99.90
43627;DHT22;29217;52.586;13.442;2023-08-07T03:00:20;14.70;99.90
43627;DHT22;29217;52.586;13.442;2023-08-07T03:02:45;14.80;99.90
43627;DHT22;29217;52.586;13.442;2023-08-07T03:05:11;14.70;99.90
43627;DHT22;29217;52.586;13.442;2023-08-07T03:07:37;14.80;99.90
43627;DHT22;29217;52.586;13.442;2023-08-07T03:10:02;14.80;99.90
43627;DHT22;29217;52.586;13.442;2023-08-07T03:12:29;14.80;99.90
43627;DHT22;29217;52.586;13.442;2023-08-07T03:14:55;14.80;99.90
43627;DHT22;29217;52.586;13.442;2023-08-07T03:17:20;14.80;99.90
43627;DHT22;29217;52.586;13.442;2023-08-07T03:19:46;14.90;99.90
43627;DHT22;29217;52.586;13.442;2023-08-07T03:22:12;14.90;99.90
43627;DHT22;29217;52.586;13.442;2023-08-07T03:24:38;14.80;99.90
43627;DHT22;29217;52.586;13.442;2023-08-07T03:27:04;14.80;99.90
43627;DHT22;29217;52.586;13.442;2023-08-07T03:29:29;14.90;99.90
43627;DHT22;29217;52.586;13.442;2023-08-07T03:31:55;14.90;99.90
43627;DHT22;29217;52.586;13.442;2023-08-07T03:34:21;14.90;99.90
43627;DHT22;29217;52.586;13.442;2023-08-07T03:36:46;14.90;99.90
43627;DHT22;29217;52.586;13.442;2023-08-07T03:39:12;14.90;99.90
43627;DHT22;29217;52.586;13.442;2023-08-07T03:41:38;15.00;99.90
43627;DHT22;29217;52.586;13.442;2023-08-07T03:44:04;14.90;99.90
43627;DHT22;29217;52.586;13.442;2023-08-07T03:46:29;15.00;99.90
43627;DHT22;29217;52.586;13.442;2023-08-07T03:48:55;15.00;99.90
43627;DHT22;29217;52.586;13.442;2023-08-07T03:51:20;15.00;99.90
43627;DHT22;29217;52.586;13.442;2023-08-07T03:53:46;15.00;99.90
43627;DHT22;29217;52.586;13.442;2023-08-07T03:56:12;15.00;99.90
43627;DHT22;29217;52.586;13.442;2023-08-07T03:58:37;15.00;99.90
43627;DHT22;29217;52.586;13.442;2023-08-07T04:01:03;14.90;99.90
43627;DHT22;29217;52.586;13.442;2023-08-07T04:03:29;14.90;99.90
43627;DHT22;29217;52.586;13.442;2023-08-07T04:05:55;14.90;99.90
43627;DHT22;29217;52.586;13.442;2023-08-07T04:08:21;14.90;99.90
43627;DHT22;29217;52.586;13.442;2023-08-07T04:11:02;14.90;99.90
43627;DHT22;29217;52.586;13.442;2023-08-07T04:13:29;14.90;99.90
43627;DHT22;29217;52.586;13.442;2023-08-07T04:15:54;14.90;99.90
43627;DHT22;29217;52.586;13.442;2023-08-07T04:18:20;15.00;99.90
43627;DHT22;29217;52.586;13.442;2023-08-07T04:21:04;15.00;99.90
43627;DHT22;29217;52.586;13.442;2023-08-07T04:23:29;15.10;99.90
43627;DHT22;29217;52.586;13.442;2023-08-07T04:25:56;15.00;99.90
43627;DHT22;29217;52.586;13.442;2023-08-07T04:28:23;15.10;99.90
43627;DHT22;29217;52.586;13.442;2023-08-07T04:30:50;15.10;99.90
43627;DHT22;29217;52.586;13.442;2023-08-07T04:33:16;15.10;99.90
43627;DHT22;29217;52.586;13.442;2023-08-07T04:35:41;15.10;99.90
43627;DHT22;29217;52.586;13.442;2023-08-07T04:38:07;15.10;99.90
43627;DHT22;29217;52.586;13.442;2023-08-07T04:40:32;15.10;99.90
43627;DHT22;29217;52.586;13.442;2023-08-07T04:42:58;15.10;99.90
43627;DHT22;29217;52.586;13.442;2023-08-07T04:45:24;15.10;99.90
43627;DHT22;29217;52.586;13.442;2023-08-07T04:47:49;15.10;99.90
43627;DHT22;29217;52.586;13.442;2023-08-07T04:50:16;15.10;99.90
43627;DHT22;29217;52.586;13.442;2023-08-07T04:52:41;15.10;99.90
43627;DHT22;29217;52.586;13.442;2023-08-07T04:55:07;15.10;99.90
43627;DHT22;29217;52.586;13.442;2023-08-07T04:57:33;15.10;99.90
43627;DHT22;29217;52.586;13.442;2023-08-07T04:59:58;15.10;99.90
43627;DHT22;29217;52.586;13.442;2023-08-07T05:02:24;15.10;99.90
43627;DHT22;29217;52.586;13.442;2023-08-07T05:04:50;15.10;99.90
43627;DHT22;29217;52.586;13.442;2023-08-07T05:07:15;15.10;99.90
43627;DHT22;29217;52.586;13.442;2023-08-07T05:09:41;15.20;99.90
43627;DHT22;29217;52.586;13.442;2023-08-07T05:12:07;15.20;99.90
43627;DHT22;29217;52.586;13.442;2023-08-07T05:14:33;15.20;99.90
43627;DHT22;29217;52.586;13.442;2023-08-07T05:16:58;15.20;99.90
43627;DHT22;29217;52.586;13.442;2023-08-07T05:19:27;15.30;99.90
43627;DHT22;29217;52.586;13.442;2023-08-07T05:21:52;15.30;99.90
43627;DHT22;29217;52.586;13.442;2023-08-07T05:24:18;15.30;99.90
43627;DHT22;29217;52.586;13.442;2023-08-07T05:26:44;15.30;99.90
43627;DHT22;29217;52.586;13.442;2023-08-07T05:29:09;15.30;99.90
43627;DHT22;29217;52.586;13.442;2023-08-07T05:31:35;15.30;99.90
43627;DHT22;29217;52.586;13.442;2023-08-07T05:34:01;15.30;99.90
43627;DHT22;29217;52.586;13.442;2023-08-07T05:36:27;15.30;99.90
43627;DHT22;29217;52.586;13.442;2023-08-07T05:38:53;15.30;99.90
43627;DHT22;29217;52.586;13.442;2023-08-07T05:41:19;15.30;99.90
43627;DHT22;29217;52.586;13.442;2023-08-07T05:43:45;15.20;99.90
43627;DHT22;29217;52.586;13.442;2023-08-07T05:46:11;15.20;99.90
43627;DHT22;29217;52.586;13.442;2023-08-07T05:48:36;15.20;99.90
43627;DHT22;29217;52.586;13.442;2023-08-07T05:51:02;15.20;99.90
43627;DHT22;29217;52.586;13.442;2023-08-07T05:53:28;15.20;99.90
43627;DHT22;29217;52.586;13.442;2023-08-07T05:55:53;15.30;99.90
43627;DHT22;29217;52.586;13.442;2023-08-07T05:58:19;15.30;99.90
43627;DHT22;29217;52.586;13.442;2023-08-07T06:00:45;15.30;99.90
43627;DHT22;29217;52.586;13.442;2023-08-07T06:03:11;15.30;99.90
43627;DHT22;29217;52.586;13.442;2023-08-07T06:05:37;15.40;99.90
43627;DHT22;29217;52.586;13.442;2023-08-07T06:08:02;15.40;99.90
43627;DHT22;29217;52.586;13.442;2023-08-07T06:10:28;15.50;99.90
43627;DHT22;29217;52.586;13.442;2023-08-07T06:12:54;15.50;99.90
43627;DHT22;29217;52.586;13.442;2023-08-07T06:15:19;15.50;99.90
43627;DHT22;29217;52.586;13.442;2023-08-07T06:17:45;15.50;99.90
43627;DHT22;29217;52.586;13.442;2023-08-07T06:20:11;15.60;99.90
43627;DHT22;29217;52.586;13.442;2023-08-07T06:22:40;15.70;99.90
43627;DHT22;29217;52.586;13.442;2023-08-07T06:25:06;15.80;99.90
43627;DHT22;29217;52.586;13.442;2023-08-07T06:27:32;15.80;99.90
43627;DHT22;29217;52.586;13.442;2023-08-07T06:29:58;15.80;99.90
43627;DHT22;29217;52.586;13.442;2023-08-07T06:32:25;15.90;99.90
43627;DHT22;29217;52.586;13.442;2023-08-07T06:34:50;15.90;99.90
43627;DHT22;29217;52.586;13.442;2023-08-07T06:37:16;15.90;99.90
43627;DHT22;29217;52.586;13.442;2023-08-07T06:39:42;15.90;99.90
43627;DHT22;29217;52.586;13.442;2023-08-07T06:42:07;15.90;99.90
43627;DHT22;29217;52.586;13.442;2023-08-07T06:44:33;15.90;99.90
43627;DHT22;29217;52.586;13.442;2023-08-07T06:46:59;15.90;99.90
43627;DHT22;29217;52.586;13.442;2023-08-07T06:49:24;16.00;99.90
43627;DHT22;29217;52.586;13.442;2023-08-07T06:51:50;16.00;99.90
43627;DHT22;29217;52.586;13.442;2023-08-07T06:54:15;16.00;99.90
43627;DHT22;29217;52.586;13.442;2023-08-07T06:56:41;16.10;99.90
43627;DHT22;29217;52.586;13.442;2023-08-07T06:59:07;16.10;99.90
43627;DHT22;29217;52.586;13.442;2023-08-07T07:01:33;16.10;99.90
43627;DHT22;29217;52.586;13.442;2023-08-07T07:03:59;16.20;99.90
43627;DHT22;29217;52.586;13.442;2023-08-07T07:06:24;16.30;99.90
43627;DHT22;29217;52.586;13.442;2023-08-07T07:08:51;16.40;99.90
43627;DHT22;29217;52.586;13.442;2023-08-07T07:11:21;16.50;99.90
43627;DHT22;29217;52.586;13.442;2023-08-07T07:13:48;16.50;99.90
43627;DHT22;29217;52.586;13.442;2023-08-07T07:16:14;16.60;99.90
43627;DHT22;29217;52.586;13.442;2023-08-07T07:18:40;16.60;99.90
43627;DHT22;29217;52.586;13.442;2023-08-07T07:21:05;16.70;99.90
43627;DHT22;29217;52.586;13.442;2023-08-07T07:23:31;16.70;99.90
43627;DHT22;29217;52.586;13.442;2023-08-07T07:25:57;16.80;99.90
43627;DHT22;29217;52.586;13.442;2023-08-07T07:28:23;16.80;99.90
43627;DHT22;29217;52.586;13.442;2023-08-07T07:30:51;16.90;99.90
43627;DHT22;29217;52.586;13.442;2023-08-07T07:33:18;17.00;99.90
43627;DHT22;29217;52.586;13.442;2023-08-07T07:35:43;17.10;99.90
43627;DHT22;29217;52.586;13.442;2023-08-07T07:38:09;17.10;99.90
43627;DHT22;29217;52.586;13.442;2023-08-07T07:40:35;17.10;99.90
43627;DHT22;29217;52.586;13.442;2023-08-07T07:43:01;17.10;99.90
43627;DHT22;29217;52.586;13.442;2023-08-07T07:45:27;17.20;99.90
43627;DHT22;29217;52.586;13.442;2023-08-07T07:47:52;17.20;99.90
43627;DHT22;29217;52.586;13.442;2023-08-07T07:50:18;17.20;99.90
43627;DHT22;29217;52.586;13.442;2023-08-07T07:52:43;17.10;99.90
43627;DHT22;29217;52.586;13.442;2023-08-07T07:55:10;17.10;99.90
43627;DHT22;29217;52.586;13.442;2023-08-07T07:57:35;17.20;99.90
43627;DHT22;29217;52.586;13.442;2023-08-07T08:00:01;17.20;99.90
43627;DHT22;29217;52.586;13.442;2023-08-07T08:02:29;17.20;99.90
43627;DHT22;29217;52.586;13.442;2023-08-07T08:04:55;17.10;99.90
43627;DHT22;29217;52.586;13.442;2023-08-07T08:07:21;17.10;99.90
43627;DHT22;29217;52.586;13.442;2023-08-07T08:09:47;17.20;99.90
43627;DHT22;29217;52.586;13.442;2023-08-07T08:12:12;17.20;99.90
43627;DHT22;29217;52.586;13.442;2023-08-07T08:14:38;17.20;99.90
43627;DHT22;29217;52.586;13.442;2023-08-07T08:17:04;17.20;99.90
43627;DHT22;29217;52.586;13.442;2023-08-07T08:19:29;17.30;99.90
43627;DHT22;29217;52.586;13.442;2023-08-07T08:21:55;17.30;99.90
43627;DHT22;29217;52.586;13.442;2023-08-07T08:24:21;17.20;99.90
43627;DHT22;29217;52.586;13.442;2023-08-07T08:26:46;17.10;99.90
43627;DHT22;29217;52.586;13.442;2023-08-07T08:29:14;17.10;99.90
43627;DHT22;29217;52.586;13.442;2023-08-07T08:31:40;17.10;99.90
43627;DHT22;29217;52.586;13.442;2023-08-07T08:34:05;17.20;99.90
43627;DHT22;29217;52.586;13.442;2023-08-07T08:36:31;17.30;99.90
43627;DHT22;29217;52.586;13.442;2023-08-07T08:38:57;17.40;99.90
43627;DHT22;29217;52.586;13.442;2023-08-07T08:41:23;17.30;99.90
43627;DHT22;29217;52.586;13.442;2023-08-07T08:43:50;17.20;99.90
43627;DHT22;29217;52.586;13.442;2023-08-07T08:46:20;17.20;99.90
43627;DHT22;29217;52.586;13.442;2023-08-07T08:48:51;17.30;99.90
43627;DHT22;29217;52.586;13.442;2023-08-07T08:51:17;17.40;99.90
43627;DHT22;29217;52.586;13.442;2023-08-07T08:53:47;17.60;99.90
43627;DHT22;29217;52.586;13.442;2023-08-07T08:56:15;17.60;99.90
43627;DHT22;29217;52.586;13.442;2023-08-07T08:58:41;17.70;99.90
43627;DHT22;29217;52.586;13.442;2023-08-07T09:01:07;17.70;99.90
43627;DHT22;29217;52.586;13.442;2023-08-07T09:03:33;17.80;99.90
43627;DHT22;29217;52.586;13.442;2023-08-07T09:05:59;18.00;99.90
43627;DHT22;29217;52.586;13.442;2023-08-07T09:08:27;18.00;99.90
43627;DHT22;29217;52.586;13.442;2023-08-07T09:10:55;18.00;99.90
43627;DHT22;29217;52.586;13.442;2023-08-07T09:13:23;18.00;99.90
43627;DHT22;29217;52.586;13.442;2023-08-07T09:15:50;18.00;99.90
43627;DHT22;29217;52.586;13.442;2023-08-07T09:18:17;18.10;99.90
43627;DHT22;29217;52.586;13.442;2023-08-07T09:20:44;18.20;99.90
43627;DHT22;29217;52.586;13.442;2023-08-07T09:23:10;18.20;99.90
43627;DHT22;29217;52.586;13.442;2023-08-07T09:25:36;18.30;99.90
43627;DHT22;29217;52.586;13.442;2023-08-07T09:28:03;18.40;99.90
43627;DHT22;29217;52.586;13.442;2023-08-07T09:30:34;18.50;99.90
43627;DHT22;29217;52.586;13.442;2023-08-07T09:33:00;18.50;99.90
43627;DHT22;29217;52.586;13.442;2023-08-07T09:35:26;18.40;99.90
43627;DHT22;29217;52.586;13.442;2023-08-07T09:37:53;18.40;99.90
43627;DHT22;29217;52.586;13.442;2023-08-07T09:40:19;18.30;99.90
43627;DHT22;29217;52.586;13.442;2023-08-07T09:42:50;18.30;99.90
43627;DHT22;29217;52.586;13.442;2023-08-07T09:45:27;18.30;99.90
43627;DHT22;29217;52.586;13.442;2023-08-07T09:48:00;18.30;99.90
43627;DHT22;29217;52.586;13.442;2023-08-07T09:50:27;18.20;99.90
43627;DHT22;29217;52.586;13.442;2023-08-07T09:52:54;18.30;99.90
43627;DHT22;29217;52.586;13.442;2023-08-07T09:55:24;18.30;99.90
43627;DHT22;29217;52.586;13.442;2023-08-07T09:57:50;18.30;99.90
43627;DHT22;29217;52.586;13.442;2023-08-07T10:00:17;18.30;99.90
43627;DHT22;29217;52.586;13.442;2023-08-07T10:02:46;18.30;99.90
43627;DHT22;29217;52.586;13.442;2023-08-07T10:05:13;18.40;99.90
43627;DHT22;29217;52.586;13.442;2023-08-07T10:07:40;18.30;99.90
43627;DHT22;29217;52.586;13.442;2023-08-07T10:10:07;18.30;99.90
43627;DHT22;29217;52.586;13.442;2023-08-07T10:12:33;18.20;99.90
43627;DHT22;29217;52.586;13.442;2023-08-07T10:15:00;18.20;99.90
43627;DHT22;29217;52.586;13.442;2023-08-07T10:17:26;18.30;99.90
43627;DHT22;29217;52.586;13.442;2023-08-07T10:19:52;18.40;99.90
43627;DHT22;29217;52.586;13.442;2023-08-07T10:22:24;18.40;99.90
43627;DHT22;29217;52.586;13.442;2023-08-07T10:24:53;18.30;99.90
43627;DHT22;29217;52.586;13.442;2023-08-07T10:27:20;18.30;99.90
43627;DHT22;29217;52.586;13.442;2023-08-07T10:29:49;18.40;99.90
43627;DHT22;29217;52.586;13.442;2023-08-07T10:32:20;18.40;99.90
43627;DHT22;29217;52.586;13.442;2023-08-07T10:34:52;18.40;99.90
43627;DHT22;29217;52.586;13.442;2023-08-07T10:37:44;18.50;99.90
43627;DHT22;29217;52.586;13.442;2023-08-07T10:40:11;18.60;99.90
43627;DHT22;29217;52.586;13.442;2023-08-07T10:45:18;18.80;99.90
43627;DHT22;29217;52.586;13.442;2023-08-07T10:47:57;18.70;99.90
43627;DHT22;29217;52.586;13.442;2023-08-07T10:50:28;18.90;99.90
43627;DHT22;29217;52.586;13.442;2023-08-07T10:52:55;19.00;99.90
43627;DHT22;29217;52.586;13.442;2023-08-07T10:55:20;19.10;99.90
43627;DHT22;29217;52.586;13.442;2023-08-07T10:57:46;19.10;99.90
43627;DHT22;29217;52.586;13.442;2023-08-07T11:00:12;18.90;99.90
43627;DHT22;29217;52.586;13.442;2023-08-07T11:02:42;18.70;99.90
43627;DHT22;29217;52.586;13.442;2023-08-07T11:05:08;18.40;99.90
43627;DHT22;29217;52.586;13.442;2023-08-07T11:07:34;18.10;99.90
43627;DHT22;29217;52.586;13.442;2023-08-07T11:09:59;18.20;99.90
43627;DHT22;29217;52.586;13.442;2023-08-07T11:12:28;18.30;99.90
43627;DHT22;29217;52.586;13.442;2023-08-07T11:14:55;18.30;99.90
43627;DHT22;29217;52.586;13.442;2023-08-07T11:17:27;18.30;99.90
43627;DHT22;29217;52.586;13.442;2023-08-07T11:19:53;18.30;99.90
43627;DHT22;29217;52.586;13.442;2023-08-07T11:22:20;18.30;99.90
43627;DHT22;29217;52.586;13.442;2023-08-07T11:24:46;18.20;99.90
43627;DHT22;29217;52.586;13.442;2023-08-07T11:27:12;18.40;99.90
43627;DHT22;29217;52.586;13.442;2023-08-07T11:29:37;18.50;99.90
43627;DHT22;29217;52.586;13.442;2023-08-07T11:32:04;18.40;99.90
43627;DHT22;29217;52.586;13.442;2023-08-07T11:34:30;18.40;99.90
43627;DHT22;29217;52.586;13.442;2023-08-07T11:36:55;18.30;99.90
43627;DHT22;29217;52.586;13.442;2023-08-07T11:39:23;18.20;99.90
43627;DHT22;29217;52.586;13.442;2023-08-07T11:41:52;18.10;99.90
43627;DHT22;29217;52.586;13.442;2023-08-07T11:44:18;18.20;99.90
43627;DHT22;29217;52.586;13.442;2023-08-07T11:46:44;18.20;99.90
43627;DHT22;29217;52.586;13.442;2023-08-07T11:49:10;18.20;99.90
43627;DHT22;29217;52.586;13.442;2023-08-07T11:51:36;18.20;99.90
43627;DHT22;29217;52.586;13.442;2023-08-07T11:54:02;18.40;99.90
43627;DHT22;29217;52.586;13.442;2023-08-07T11:56:29;18.70;99.90
43627;DHT22;29217;52.586;13.442;2023-08-07T11:58:56;18.70;99.90
43627;DHT22;29217;52.586;13.442;2023-08-07T12:01:25;18.90;99.90
43627;DHT22;29217;52.586;13.442;2023-08-07T12:03:55;19.10;99.90
43627;DHT22;29217;52.586;13.442;2023-08-07T12:06:25;19.10;99.90
43627;DHT22;29217;52.586;13.442;2023-08-07T12:08:54;19.40;99.90
43627;DHT22;29217;52.586;13.442;2023-08-07T12:11:20;19.60;99.90
43627;DHT22;29217;52.586;13.442;2023-08-07T12:13:49;19.60;99.90
43627;DHT22;29217;52.586;13.442;2023-08-07T12:16:16;19.80;99.90
43627;DHT22;29217;52.586;13.442;2023-08-07T12:18:49;19.90;99.90
43627;DHT22;29217;52.586;13.442;2023-08-07T12:21:17;20.10;99.90
43627;DHT22;29217;52.586;13.442;2023-08-07T12:23:48;20.20;99.90
43627;DHT22;29217;52.586;13.442;2023-08-07T12:26:14;20.50;99.90
43627;DHT22;29217;52.586;13.442;2023-08-07T12:28:40;20.50;99.90
43627;DHT22;29217;52.586;13.442;2023-08-07T12:31:05;20.40;99.90
43627;DHT22;29217;52.586;13.442;2023-08-07T12:33:32;20.50;99.90
43627;DHT22;29217;52.586;13.442;2023-08-07T12:35:59;20.80;99.90
43627;DHT22;29217;52.586;13.442;2023-08-07T12:38:25;21.10;99.90
43627;DHT22;29217;52.586;13.442;2023-08-07T12:40:51;21.30;99.90
43627;DHT22;29217;52.586;13.442;2023-08-07T12:43:16;21.30;99.90
43627;DHT22;29217;52.586;13.442;2023-08-07T12:45:42;21.40;99.90
43627;DHT22;29217;52.586;13.442;2023-08-07T12:48:08;21.60;99.90
43627;DHT22;29217;52.586;13.442;2023-08-07T12:50:34;21.70;99.90
43627;DHT22;29217;52.586;13.442;2023-08-07T12:53:00;21.40;99.90
43627;DHT22;29217;52.586;13.442;2023-08-07T12:55:26;20.90;99.90
43627;DHT22;29217;52.586;13.442;2023-08-07T12:57:53;20.60;99.90
43627;DHT22;29217;52.586;13.442;2023-08-07T13:00:19;20.40;99.90
43627;DHT22;29217;52.586;13.442;2023-08-07T13:02:45;20.20;99.90
43627;DHT22;29217;52.586;13.442;2023-08-07T13:05:11;20.30;99.90
43627;DHT22;29217;52.586;13.442;2023-08-07T13:07:41;20.30;99.90
43627;DHT22;29217;52.586;13.442;2023-08-07T13:10:08;20.50;99.90
43627;DHT22;29217;52.586;13.442;2023-08-07T13:12:39;20.50;99.90
43627;DHT22;29217;52.586;13.442;2023-08-07T13:15:07;20.70;99.90
43627;DHT22;29217;52.586;13.442;2023-08-07T13:17:37;21.10;99.90
43627;DHT22;29217;52.586;13.442;2023-08-07T13:20:04;21.20;99.90
43627;DHT22;29217;52.586;13.442;2023-08-07T13:22:38;21.40;99.90
43627;DHT22;29217;52.586;13.442;2023-08-07T13:25:05;21.50;99.90
43627;DHT22;29217;52.586;13.442;2023-08-07T13:27:31;21.50;99.90
43627;DHT22;29217;52.586;13.442;2023-08-07T13:29:57;21.40;99.90
43627;DHT22;29217;52.586;13.442;2023-08-07T13:32:23;20.90;99.90
43627;DHT22;29217;52.586;13.442;2023-08-07T13:34:48;21.00;99.90
43627;DHT22;29217;52.586;13.442;2023-08-07T13:37:14;21.00;99.90
43627;DHT22;29217;52.586;13.442;2023-08-07T13:39:40;21.00;99.90
43627;DHT22;29217;52.586;13.442;2023-08-07T13:42:06;21.00;99.90
43627;DHT22;29217;52.586;13.442;2023-08-07T13:44:32;21.10;99.90
43627;DHT22;29217;52.586;13.442;2023-08-07T13:46:58;21.10;99.90
43627;DHT22;29217;52.586;13.442;2023-08-07T13:49:24;21.10;99.90
43627;DHT22;29217;52.586;13.442;2023-08-07T13:51:50;21.20;99.90
43627;DHT22;29217;52.586;13.442;2023-08-07T13:54:15;21.50;99.90
43627;DHT22;29217;52.586;13.442;2023-08-07T13:56:41;21.60;99.90
43627;DHT22;29217;52.586;13.442;2023-08-07T13:59:07;21.40;99.90
43627;DHT22;29217;52.586;13.442;2023-08-07T14:01:33;21.10;99.90
43627;DHT22;29217;52.586;13.442;2023-08-07T14:04:00;20.60;99.90
43627;DHT22;29217;52.586;13.442;2023-08-07T14:06:26;20.30;99.90
43627;DHT22;29217;52.586;13.442;2023-08-07T14:08:52;20.10;99.90
43627;DHT22;29217;52.586;13.442;2023-08-07T14:11:18;20.10;99.90
43627;DHT22;29217;52.586;13.442;2023-08-07T14:13:44;20.00;99.90
43627;DHT22;29217;52.586;13.442;2023-08-07T14:16:11;19.90;99.90
43627;DHT22;29217;52.586;13.442;2023-08-07T14:18:37;20.00;99.90
43627;DHT22;29217;52.586;13.442;2023-08-07T14:21:03;19.90;99.90
43627;DHT22;29217;52.586;13.442;2023-08-07T14:23:28;19.90;99.90
43627;DHT22;29217;52.586;13.442;2023-08-07T14:25:54;19.90;99.90
43627;DHT22;29217;52.586;13.442;2023-08-07T14:28:19;19.90;99.90
43627;DHT22;29217;52.586;13.442;2023-08-07T14:30:45;20.10;99.90
43627;DHT22;29217;52.586;13.442;2023-08-07T14:33:11;20.30;99.90
43627;DHT22;29217;52.586;13.442;2023-08-07T14:35:36;20.50;99.90
43627;DHT22;29217;52.586;13.442;2023-08-07T14:38:02;20.60;99.90
43627;DHT22;29217;52.586;13.442;2023-08-07T14:40:27;20.30;99.90
43627;DHT22;29217;52.586;13.442;2023-08-07T14:42:54;20.10;99.90
43627;DHT22;29217;52.586;13.442;2023-08-07T14:45:21;19.90;99.90
43627;DHT22;29217;52.586;13.442;2023-08-07T14:47:48;20.20;99.90
43627;DHT22;29217;52.586;13.442;2023-08-07T14:50:13;20.30;99.90
43627;DHT22;29217;52.586;13.442;2023-08-07T14:52:41;20.20;99.90
43627;DHT22;29217;52.586;13.442;2023-08-07T14:55:06;20.00;99.90
43627;DHT22;29217;52.586;13.442;2023-08-07T14:57:32;19.70;99.90
43627;DHT22;29217;52.586;13.442;2023-08-07T14:59:58;19.60;99.90
43627;DHT22;29217;52.586;13.442;2023-08-07T15:02:23;19.50;99.90
43627;DHT22;29217;52.586;13.442;2023-08-07T15:04:49;19.40;99.90
43627;DHT22;29217;52.586;13.442;2023-08-07T15:07:15;19.30;99.90
43627;DHT22;29217;52.586;13.442;2023-08-07T15:09:40;19.10;99.90
43627;DHT22;29217;52.586;13.442;2023-08-07T15:12:06;19.10;99.90
43627;DHT22;29217;52.586;13.442;2023-08-07T15:14:32;19.20;99.90
43627;DHT22;29217;52.586;13.442;2023-08-07T15:16:58;19.30;99.90
43627;DHT22;29217;52.586;13.442;2023-08-07T15:19:23;19.50;99.90
43627;DHT22;29217;52.586;13.442;2023-08-07T15:21:52;19.50;99.90
43627;DHT22;29217;52.586;13.442;2023-08-07T15:24:18;19.50;99.90
43627;DHT22;29217;52.586;13.442;2023-08-07T15:26:43;19.40;99.90